sensor_id;sensor_type;location;lat;lon;timestamp;P1;durP1;ratioP1;P2;durP2;ratioP2
18520;SDS011;9390;51.244;6.982;2024-01-16T00:00:35;32.05;;;9.68;;
18520;SDS011;9390;51.244;6.982;2024-01-16T00:03:06;19.95;;;9.48;;
18520;SDS011;9390;51.244;6.982;2024-01-16T00:05:37;21.33;;;9.32;;
18520;SDS011;9390;51.244;6.982;2024-01-16T00:08:09;18.77;;;9.02;;
18520;SDS011;9390;51.244;6.982;2024-01-16T00:10:40;19.92;;;9.07;;
18520;SDS011;9390;51.244;6.982;2024-01-16T00:13:12;22.73;;;9.10;;
18520;SDS011;9390;51.244;6.982;2024-01-16T00:15:45;20.80;;;9.82;;
18520;SDS011;9390;51.244;6.982;2024-01-16T00:18:16;20.13;;;7.65;;
18520;SDS011;9390;51.244;6.982;2024-01-16T00:20:47;22.48;;;8.90;;
18520;SDS011;9390;51.244;6.982;2024-01-16T00:23:22;16.65;;;7.55;;
18520;SDS011;9390;51.244;6.982;2024-01-16T00:25:53;16.30;;;7.20;;
18520;SDS011;9390;51.244;6.982;2024-01-16T00:28:25;15.23;;;7.38;;
18520;SDS011;9390;51.244;6.982;2024-01-16T00:30:57;20.60;;;7.90;;
18520;SDS011;9390;51.244;6.982;2024-01-16T00:33:29;22.88;;;7.38;;
18520;SDS011;9390;51.244;6.982;2024-01-16T00:36:00;19.40;;;6.72;;
18520;SDS011;9390;51.244;6.982;2024-01-16T00:38:32;17.38;;;6.55;;
18520;SDS011;9390;51.244;6.982;2024-01-16T00:41:03;16.70;;;7.35;;
18520;SDS011;9390;51.244;6.982;2024-01-16T00:43:35;22.08;;;6.82;;
18520;SDS011;9390;51.244;6.982;2024-01-16T00:46:07;13.10;;;5.57;;
18520;SDS011;9390;51.244;6.982;2024-01-16T00:48:39;16.42;;;6.20;;
18520;SDS011;9390;51.244;6.982;2024-01-16T00:51:10;15.10;;;5.95;;
18520;SDS011;9390;51.244;6.982;2024-01-16T00:53:42;16.73;;;5.70;;
18520;SDS011;9390;51.244;6.982;2024-01-16T00:56:13;14.18;;;5.63;;
18520;SDS011;9390;51.244;6.982;2024-01-16T00:58:45;13.85;;;6.25;;
18520;SDS011;9390;51.244;6.982;2024-01-16T01:01:17;17.92;;;6.60;;
18520;SDS011;9390;51.244;6.982;2024-01-16T01:03:49;13.77;;;6.40;;
18520;SDS011;9390;51.244;6.982;2024-01-16T01:06:22;13.60;;;6.07;;
18520;SDS011;9390;51.244;6.982;2024-01-16T01:08:53;15.13;;;6.13;;
18520;SDS011;9390;51.244;6.982;2024-01-16T01:11:24;15.30;;;7.13;;
18520;SDS011;9390;51.244;6.982;2024-01-16T01:13:56;15.07;;;6.85;;
18520;SDS011;9390;51.244;6.982;2024-01-16T01:16:28;18.73;;;7.97;;
18520;SDS011;9390;51.244;6.982;2024-01-16T01:19:00;27.83;;;8.80;;
18520;SDS011;9390;51.244;6.982;2024-01-16T01:21:31;15.93;;;7.82;;
18520;SDS011;9390;51.244;6.982;2024-01-16T01:24:03;19.92;;;8.23;;
18520;SDS011;9390;51.244;6.982;2024-01-16T01:26:34;22.83;;;7.55;;
18520;SDS011;9390;51.244;6.982;2024-01-16T01:29:06;19.98;;;8.35;;
18520;SDS011;9390;51.244;6.982;2024-01-16T01:31:38;17.25;;;8.57;;
18520;SDS011;9390;51.244;6.982;2024-01-16T01:34:10;17.83;;;8.20;;
18520;SDS011;9390;51.244;6.982;2024-01-16T01:36:41;19.15;;;7.85;;
18520;SDS011;9390;51.244;6.982;2024-01-16T01:39:13;22.33;;;9.18;;
18520;SDS011;9390;51.244;6.982;2024-01-16T01:41:45;22.60;;;9.52;;
18520;SDS011;9390;51.244;6.982;2024-01-16T01:44:16;20.02;;;9.50;;
18520;SDS011;9390;51.244;6.982;2024-01-16T01:46:49;22.80;;;9.30;;
18520;SDS011;9390;51.244;6.982;2024-01-16T01:49:20;28.35;;;9.70;;
18520;SDS011;9390;51.244;6.982;2024-01-16T01:51:53;35.70;;;12.50;;
18520;SDS011;9390;51.244;6.982;2024-01-16T01:54:25;23.70;;;10.70;;
18520;SDS011;9390;51.244;6.982;2024-01-16T01:56:57;25.58;;;11.23;;
18520;SDS011;9390;51.244;6.982;2024-01-16T01:59:29;26.77;;;10.65;;
18520;SDS011;9390;51.244;6.982;2024-01-16T02:02:02;24.80;;;11.98;;
18520;SDS011;9390;51.244;6.982;2024-01-16T02:04:34;24.95;;;11.98;;
18520;SDS011;9390;51.244;6.982;2024-01-16T02:07:07;27.23;;;11.85;;
18520;SDS011;9390;51.244;6.982;2024-01-16T02:09:39;29.85;;;13.43;;
18520;SDS011;9390;51.244;6.982;2024-01-16T02:12:10;30.55;;;12.38;;
18520;SDS011;9390;51.244;6.982;2024-01-16T02:14:41;25.05;;;12.13;;
18520;SDS011;9390;51.244;6.982;2024-01-16T02:17:14;38.20;;;14.52;;
18520;SDS011;9390;51.244;6.982;2024-01-16T02:19:45;26.25;;;11.10;;
18520;SDS011;9390;51.244;6.982;2024-01-16T02:22:19;30.50;;;12.00;;
18520;SDS011;9390;51.244;6.982;2024-01-16T02:24:53;24.88;;;12.38;;
18520;SDS011;9390;51.244;6.982;2024-01-16T02:27:24;24.02;;;12.25;;
18520;SDS011;9390;51.244;6.982;2024-01-16T02:29:55;21.25;;;10.85;;
18520;SDS011;9390;51.244;6.982;2024-01-16T02:32:27;27.25;;;10.93;;
18520;SDS011;9390;51.244;6.982;2024-01-16T02:34:58;26.75;;;11.27;;
18520;SDS011;9390;51.244;6.982;2024-01-16T02:37:29;30.05;;;12.40;;
18520;SDS011;9390;51.244;6.982;2024-01-16T02:40:02;27.73;;;11.82;;
18520;SDS011;9390;51.244;6.982;2024-01-16T02:42:36;32.42;;;12.90;;
18520;SDS011;9390;51.244;6.982;2024-01-16T02:45:08;23.85;;;11.32;;
18520;SDS011;9390;51.244;6.982;2024-01-16T02:47:40;26.47;;;11.53;;
18520;SDS011;9390;51.244;6.982;2024-01-16T02:50:11;32.25;;;12.57;;
18520;SDS011;9390;51.244;6.982;2024-01-16T02:52:43;25.65;;;12.00;;
18520;SDS011;9390;51.244;6.982;2024-01-16T02:55:16;31.08;;;13.68;;
18520;SDS011;9390;51.244;6.982;2024-01-16T02:57:47;26.67;;;12.63;;
18520;SDS011;9390;51.244;6.982;2024-01-16T03:00:18;22.92;;;11.82;;
18520;SDS011;9390;51.244;6.982;2024-01-16T03:02:50;29.88;;;13.35;;
18520;SDS011;9390;51.244;6.982;2024-01-16T03:05:21;29.48;;;12.88;;
18520;SDS011;9390;51.244;6.982;2024-01-16T03:07:52;28.60;;;12.43;;
18520;SDS011;9390;51.244;6.982;2024-01-16T03:10:25;27.85;;;12.15;;
18520;SDS011;9390;51.244;6.982;2024-01-16T03:12:56;27.02;;;12.55;;
18520;SDS011;9390;51.244;6.982;2024-01-16T03:15:28;35.08;;;13.93;;
18520;SDS011;9390;51.244;6.982;2024-01-16T03:18:00;30.77;;;13.82;;
18520;SDS011;9390;51.244;6.982;2024-01-16T03:20:32;31.27;;;13.13;;
18520;SDS011;9390;51.244;6.982;2024-01-16T03:23:03;24.17;;;12.15;;
18520;SDS011;9390;51.244;6.982;2024-01-16T03:25:36;26.33;;;12.68;;
18520;SDS011;9390;51.244;6.982;2024-01-16T03:28:08;28.10;;;12.73;;
18520;SDS011;9390;51.244;6.982;2024-01-16T03:30:40;25.00;;;12.75;;
18520;SDS011;9390;51.244;6.982;2024-01-16T03:33:12;26.35;;;12.20;;
18520;SDS011;9390;51.244;6.982;2024-01-16T03:35:44;24.58;;;12.00;;
18520;SDS011;9390;51.244;6.982;2024-01-16T03:38:15;26.42;;;11.80;;
18520;SDS011;9390;51.244;6.982;2024-01-16T03:40:48;29.88;;;12.82;;
18520;SDS011;9390;51.244;6.982;2024-01-16T03:43:20;29.38;;;12.52;;
18520;SDS011;9390;51.244;6.982;2024-01-16T03:45:51;22.83;;;11.07;;
18520;SDS011;9390;51.244;6.982;2024-01-16T03:48:22;24.60;;;12.10;;
18520;SDS011;9390;51.244;6.982;2024-01-16T03:50:54;25.25;;;11.18;;
18520;SDS011;9390;51.244;6.982;2024-01-16T03:53:25;26.45;;;11.88;;
18520;SDS011;9390;51.244;6.982;2024-01-16T03:56:01;26.42;;;11.80;;
18520;SDS011;9390;51.244;6.982;2024-01-16T03:58:32;24.65;;;11.48;;
18520;SDS011;9390;51.244;6.982;2024-01-16T04:01:03;29.42;;;12.23;;
18520;SDS011;9390;51.244;6.982;2024-01-16T04:03:35;26.50;;;11.45;;
18520;SDS011;9390;51.244;6.982;2024-01-16T04:06:13;34.00;;;9.88;;
18520;SDS011;9390;51.244;6.982;2024-01-16T04:08:45;33.45;;;11.05;;
18520;SDS011;9390;51.244;6.982;2024-01-16T04:11:18;23.48;;;11.25;;
18520;SDS011;9390;51.244;6.982;2024-01-16T04:13:49;30.85;;;11.20;;
18520;SDS011;9390;51.244;6.982;2024-01-16T04:16:21;27.85;;;12.15;;
18520;SDS011;9390;51.244;6.982;2024-01-16T04:18:52;19.40;;;8.75;;
18520;SDS011;9390;51.244;6.982;2024-01-16T04:21:23;23.48;;;10.50;;
18520;SDS011;9390;51.244;6.982;2024-01-16T04:23:55;21.23;;;10.38;;
18520;SDS011;9390;51.244;6.982;2024-01-16T04:26:27;22.65;;;9.43;;
18520;SDS011;9390;51.244;6.982;2024-01-16T04:28:59;21.95;;;9.55;;
18520;SDS011;9390;51.244;6.982;2024-01-16T04:31:30;21.00;;;9.15;;
18520;SDS011;9390;51.244;6.982;2024-01-16T04:34:02;22.90;;;9.67;;
18520;SDS011;9390;51.244;6.982;2024-01-16T04:36:34;24.10;;;9.63;;
18520;SDS011;9390;51.244;6.982;2024-01-16T04:39:05;21.75;;;9.02;;
18520;SDS011;9390;51.244;6.982;2024-01-16T04:44:11;18.70;;;8.07;;
18520;SDS011;9390;51.244;6.982;2024-01-16T04:46:42;18.75;;;8.90;;
18520;SDS011;9390;51.244;6.982;2024-01-16T04:49:14;25.75;;;8.48;;
18520;SDS011;9390;51.244;6.982;2024-01-16T04:51:48;15.60;;;8.05;;
18520;SDS011;9390;51.244;6.982;2024-01-16T04:54:19;21.20;;;8.82;;
18520;SDS011;9390;51.244;6.982;2024-01-16T04:56:52;25.95;;;8.80;;
18520;SDS011;9390;51.244;6.982;2024-01-16T04:59:23;19.45;;;8.30;;
18520;SDS011;9390;51.244;6.982;2024-01-16T05:01:54;20.63;;;9.07;;
18520;SDS011;9390;51.244;6.982;2024-01-16T05:04:26;23.42;;;10.88;;
18520;SDS011;9390;51.244;6.982;2024-01-16T05:06:57;19.30;;;9.13;;
18520;SDS011;9390;51.244;6.982;2024-01-16T05:09:28;18.55;;;9.07;;
18520;SDS011;9390;51.244;6.982;2024-01-16T05:12:01;19.75;;;8.35;;
18520;SDS011;9390;51.244;6.982;2024-01-16T05:14:33;24.92;;;9.98;;
18520;SDS011;9390;51.244;6.982;2024-01-16T05:17:07;27.98;;;10.63;;
18520;SDS011;9390;51.244;6.982;2024-01-16T05:19:38;24.30;;;9.55;;
18520;SDS011;9390;51.244;6.982;2024-01-16T05:22:10;23.30;;;10.23;;
18520;SDS011;9390;51.244;6.982;2024-01-16T05:24:41;19.80;;;9.55;;
18520;SDS011;9390;51.244;6.982;2024-01-16T05:27:14;22.65;;;9.43;;
18520;SDS011;9390;51.244;6.982;2024-01-16T05:29:45;22.88;;;9.45;;
18520;SDS011;9390;51.244;6.982;2024-01-16T05:32:17;24.45;;;11.05;;
18520;SDS011;9390;51.244;6.982;2024-01-16T05:34:48;24.30;;;10.57;;
18520;SDS011;9390;51.244;6.982;2024-01-16T05:37:19;25.05;;;11.48;;
18520;SDS011;9390;51.244;6.982;2024-01-16T05:39:51;25.65;;;12.43;;
18520;SDS011;9390;51.244;6.982;2024-01-16T05:42:23;36.22;;;12.30;;
18520;SDS011;9390;51.244;6.982;2024-01-16T05:44:55;25.98;;;11.68;;
18520;SDS011;9390;51.244;6.982;2024-01-16T05:47:27;25.20;;;11.98;;
18520;SDS011;9390;51.244;6.982;2024-01-16T05:49:58;22.88;;;11.70;;
18520;SDS011;9390;51.244;6.982;2024-01-16T05:52:30;29.40;;;12.30;;
18520;SDS011;9390;51.244;6.982;2024-01-16T05:55:01;40.78;;;12.25;;
18520;SDS011;9390;51.244;6.982;2024-01-16T05:57:34;26.70;;;11.35;;
18520;SDS011;9390;51.244;6.982;2024-01-16T06:00:07;22.13;;;11.02;;
18520;SDS011;9390;51.244;6.982;2024-01-16T06:02:39;27.52;;;10.95;;
18520;SDS011;9390;51.244;6.982;2024-01-16T06:05:11;29.60;;;10.68;;
18520;SDS011;9390;51.244;6.982;2024-01-16T06:07:42;26.17;;;10.35;;
18520;SDS011;9390;51.244;6.982;2024-01-16T06:10:13;30.27;;;10.20;;
18520;SDS011;9390;51.244;6.982;2024-01-16T06:12:46;18.83;;;8.95;;
18520;SDS011;9390;51.244;6.982;2024-01-16T06:15:18;20.27;;;9.18;;
18520;SDS011;9390;51.244;6.982;2024-01-16T06:17:49;26.77;;;9.35;;
18520;SDS011;9390;51.244;6.982;2024-01-16T06:20:20;24.67;;;9.70;;
18520;SDS011;9390;51.244;6.982;2024-01-16T06:25:25;14.50;;;7.90;;
18520;SDS011;9390;51.244;6.982;2024-01-16T06:27:57;28.90;;;8.85;;
18520;SDS011;9390;51.244;6.982;2024-01-16T06:30:29;21.98;;;8.32;;
18520;SDS011;9390;51.244;6.982;2024-01-16T06:33:00;15.70;;;7.55;;
18520;SDS011;9390;51.244;6.982;2024-01-16T06:35:32;20.58;;;8.43;;
18520;SDS011;9390;51.244;6.982;2024-01-16T06:38:03;17.58;;;7.40;;
18520;SDS011;9390;51.244;6.982;2024-01-16T06:40:34;22.10;;;8.07;;
18520;SDS011;9390;51.244;6.982;2024-01-16T06:43:07;21.80;;;8.50;;
18520;SDS011;9390;51.244;6.982;2024-01-16T06:45:38;23.40;;;7.80;;
18520;SDS011;9390;51.244;6.982;2024-01-16T06:48:10;25.88;;;8.02;;
18520;SDS011;9390;51.244;6.982;2024-01-16T06:50:41;21.13;;;7.18;;
18520;SDS011;9390;51.244;6.982;2024-01-16T06:53:13;17.65;;;7.20;;
18520;SDS011;9390;51.244;6.982;2024-01-16T06:55:44;16.80;;;5.68;;
18520;SDS011;9390;51.244;6.982;2024-01-16T06:58:17;14.52;;;6.28;;
18520;SDS011;9390;51.244;6.982;2024-01-16T07:00:48;23.58;;;7.00;;
18520;SDS011;9390;51.244;6.982;2024-01-16T07:03:19;15.05;;;5.80;;
18520;SDS011;9390;51.244;6.982;2024-01-16T07:05:51;20.50;;;5.68;;
18520;SDS011;9390;51.244;6.982;2024-01-16T07:08:22;15.50;;;5.30;;
18520;SDS011;9390;51.244;6.982;2024-01-16T07:10:53;16.00;;;5.22;;
18520;SDS011;9390;51.244;6.982;2024-01-16T07:13:27;13.27;;;6.05;;
18520;SDS011;9390;51.244;6.982;2024-01-16T07:15:59;20.33;;;6.07;;
18520;SDS011;9390;51.244;6.982;2024-01-16T07:18:30;9.40;;;4.10;;
18520;SDS011;9390;51.244;6.982;2024-01-16T07:21:01;14.65;;;5.82;;
18520;SDS011;9390;51.244;6.982;2024-01-16T07:23:34;15.30;;;6.27;;
18520;SDS011;9390;51.244;6.982;2024-01-16T07:26:05;18.88;;;5.15;;
18520;SDS011;9390;51.244;6.982;2024-01-16T07:28:38;16.50;;;4.47;;
18520;SDS011;9390;51.244;6.982;2024-01-16T07:31:10;19.63;;;6.38;;
18520;SDS011;9390;51.244;6.982;2024-01-16T07:33:41;12.75;;;3.85;;
18520;SDS011;9390;51.244;6.982;2024-01-16T07:36:13;15.57;;;4.35;;
18520;SDS011;9390;51.244;6.982;2024-01-16T07:38:44;13.85;;;4.80;;
18520;SDS011;9390;51.244;6.982;2024-01-16T07:41:15;20.70;;;4.80;;
18520;SDS011;9390;51.244;6.982;2024-01-16T07:43:48;13.40;;;4.57;;
18520;SDS011;9390;51.244;6.982;2024-01-16T07:46:20;18.33;;;4.25;;
18520;SDS011;9390;51.244;6.982;2024-01-16T07:48:51;15.23;;;4.60;;
18520;SDS011;9390;51.244;6.982;2024-01-16T07:51:22;13.15;;;3.95;;
18520;SDS011;9390;51.244;6.982;2024-01-16T07:54:03;10.55;;;4.07;;
18520;SDS011;9390;51.244;6.982;2024-01-16T07:56:36;11.97;;;3.67;;
18520;SDS011;9390;51.244;6.982;2024-01-16T07:59:10;16.00;;;4.50;;
18520;SDS011;9390;51.244;6.982;2024-01-16T08:01:41;11.15;;;3.85;;
18520;SDS011;9390;51.244;6.982;2024-01-16T08:04:13;19.38;;;4.38;;
18520;SDS011;9390;51.244;6.982;2024-01-16T08:06:44;13.65;;;3.83;;
18520;SDS011;9390;51.244;6.982;2024-01-16T08:09:16;9.20;;;3.40;;
18520;SDS011;9390;51.244;6.982;2024-01-16T08:11:47;10.55;;;3.78;;
18520;SDS011;9390;51.244;6.982;2024-01-16T08:14:20;15.45;;;4.47;;
18520;SDS011;9390;51.244;6.982;2024-01-16T08:16:51;13.45;;;3.75;;
18520;SDS011;9390;51.244;6.982;2024-01-16T08:19:23;7.90;;;3.72;;
18520;SDS011;9390;51.244;6.982;2024-01-16T08:21:54;13.90;;;4.35;;
18520;SDS011;9390;51.244;6.982;2024-01-16T08:24:25;22.40;;;4.95;;
18520;SDS011;9390;51.244;6.982;2024-01-16T08:26:57;10.65;;;3.97;;
18520;SDS011;9390;51.244;6.982;2024-01-16T08:29:29;12.95;;;4.18;;
18520;SDS011;9390;51.244;6.982;2024-01-16T08:32:01;9.52;;;4.38;;
18520;SDS011;9390;51.244;6.982;2024-01-16T08:34:32;7.20;;;3.05;;
18520;SDS011;9390;51.244;6.982;2024-01-16T08:37:04;18.98;;;4.25;;
18520;SDS011;9390;51.244;6.982;2024-01-16T08:39:35;15.13;;;5.85;;
18520;SDS011;9390;51.244;6.982;2024-01-16T08:42:06;14.77;;;4.18;;
18520;SDS011;9390;51.244;6.982;2024-01-16T08:44:43;9.55;;;4.13;;
18520;SDS011;9390;51.244;6.982;2024-01-16T08:47:14;14.60;;;3.90;;
18520;SDS011;9390;51.244;6.982;2024-01-16T08:49:45;12.95;;;4.15;;
18520;SDS011;9390;51.244;6.982;2024-01-16T08:52:18;14.73;;;4.72;;
18520;SDS011;9390;51.244;6.982;2024-01-16T08:54:49;13.25;;;4.32;;
18520;SDS011;9390;51.244;6.982;2024-01-16T08:57:20;28.30;;;4.50;;
18520;SDS011;9390;51.244;6.982;2024-01-16T08:59:53;14.32;;;5.53;;
18520;SDS011;9390;51.244;6.982;2024-01-16T09:02:24;12.52;;;3.80;;
18520;SDS011;9390;51.244;6.982;2024-01-16T09:04:58;21.77;;;3.85;;
18520;SDS011;9390;51.244;6.982;2024-01-16T09:07:30;10.73;;;4.13;;
18520;SDS011;9390;51.244;6.982;2024-01-16T09:10:01;9.80;;;3.25;;
18520;SDS011;9390;51.244;6.982;2024-01-16T09:12:33;16.30;;;3.85;;
18520;SDS011;9390;51.244;6.982;2024-01-16T09:15:06;14.82;;;3.40;;
18520;SDS011;9390;51.244;6.982;2024-01-16T09:17:39;19.13;;;3.50;;
18520;SDS011;9390;51.244;6.982;2024-01-16T09:20:11;7.90;;;3.15;;
18520;SDS011;9390;51.244;6.982;2024-01-16T09:22:43;13.30;;;3.63;;
18520;SDS011;9390;51.244;6.982;2024-01-16T09:25:14;15.82;;;3.70;;
18520;SDS011;9390;51.244;6.982;2024-01-16T09:27:46;9.55;;;3.30;;
18520;SDS011;9390;51.244;6.982;2024-01-16T09:30:19;12.07;;;3.65;;
18520;SDS011;9390;51.244;6.982;2024-01-16T09:32:52;11.20;;;4.85;;
18520;SDS011;9390;51.244;6.982;2024-01-16T09:35:23;9.73;;;3.63;;
18520;SDS011;9390;51.244;6.982;2024-01-16T09:37:55;12.13;;;3.90;;
18520;SDS011;9390;51.244;6.982;2024-01-16T09:40:26;11.93;;;4.60;;
18520;SDS011;9390;51.244;6.982;2024-01-16T09:42:58;9.20;;;3.70;;
18520;SDS011;9390;51.244;6.982;2024-01-16T09:45:31;11.18;;;3.85;;
18520;SDS011;9390;51.244;6.982;2024-01-16T09:48:04;15.75;;;3.92;;
18520;SDS011;9390;51.244;6.982;2024-01-16T09:50:37;10.73;;;3.00;;
18520;SDS011;9390;51.244;6.982;2024-01-16T09:53:09;13.85;;;3.33;;
18520;SDS011;9390;51.244;6.982;2024-01-16T09:55:40;7.50;;;3.63;;
18520;SDS011;9390;51.244;6.982;2024-01-16T09:58:12;11.32;;;4.10;;
18520;SDS011;9390;51.244;6.982;2024-01-16T10:00:46;10.93;;;3.83;;
18520;SDS011;9390;51.244;6.982;2024-01-16T10:03:18;9.30;;;4.07;;
18520;SDS011;9390;51.244;6.982;2024-01-16T10:05:50;8.05;;;3.40;;
18520;SDS011;9390;51.244;6.982;2024-01-16T10:08:21;15.32;;;3.60;;
18520;SDS011;9390;51.244;6.982;2024-01-16T10:10:53;17.08;;;3.22;;
18520;SDS011;9390;51.244;6.982;2024-01-16T10:13:25;10.07;;;3.60;;
18520;SDS011;9390;51.244;6.982;2024-01-16T10:15:58;13.15;;;3.95;;
18520;SDS011;9390;51.244;6.982;2024-01-16T10:18:30;14.90;;;4.50;;
18520;SDS011;9390;51.244;6.982;2024-01-16T10:21:02;17.65;;;4.13;;
18520;SDS011;9390;51.244;6.982;2024-01-16T10:23:33;13.20;;;4.78;;
18520;SDS011;9390;51.244;6.982;2024-01-16T10:26:05;9.75;;;3.90;;
18520;SDS011;9390;51.244;6.982;2024-01-16T10:28:38;11.38;;;3.20;;
18520;SDS011;9390;51.244;6.982;2024-01-16T10:31:12;10.18;;;3.63;;
18520;SDS011;9390;51.244;6.982;2024-01-16T10:33:45;10.52;;;3.33;;
18520;SDS011;9390;51.244;6.982;2024-01-16T10:36:16;11.57;;;3.38;;
18520;SDS011;9390;51.244;6.982;2024-01-16T10:38:50;8.82;;;3.10;;
18520;SDS011;9390;51.244;6.982;2024-01-16T10:41:27;9.98;;;3.95;;
18520;SDS011;9390;51.244;6.982;2024-01-16T10:44:03;10.82;;;4.45;;
18520;SDS011;9390;51.244;6.982;2024-01-16T10:46:36;11.88;;;4.07;;
18520;SDS011;9390;51.244;6.982;2024-01-16T10:49:07;12.77;;;3.78;;
18520;SDS011;9390;51.244;6.982;2024-01-16T10:51:39;12.18;;;3.58;;
18520;SDS011;9390;51.244;6.982;2024-01-16T10:54:13;8.07;;;3.70;;
18520;SDS011;9390;51.244;6.982;2024-01-16T10:56:45;8.27;;;3.40;;
18520;SDS011;9390;51.244;6.982;2024-01-16T10:59:18;11.53;;;3.80;;
18520;SDS011;9390;51.244;6.982;2024-01-16T11:01:53;10.10;;;3.90;;
18520;SDS011;9390;51.244;6.982;2024-01-16T11:04:26;13.63;;;3.40;;
18520;SDS011;9390;51.244;6.982;2024-01-16T11:06:58;15.68;;;3.75;;
18520;SDS011;9390;51.244;6.982;2024-01-16T11:09:30;12.07;;;3.53;;
18520;SDS011;9390;51.244;6.982;2024-01-16T11:12:02;9.35;;;3.20;;
18520;SDS011;9390;51.244;6.982;2024-01-16T11:14:34;10.67;;;3.47;;
18520;SDS011;9390;51.244;6.982;2024-01-16T11:17:07;12.05;;;3.80;;
18520;SDS011;9390;51.244;6.982;2024-01-16T11:19:44;13.45;;;3.58;;
18520;SDS011;9390;51.244;6.982;2024-01-16T11:22:15;9.50;;;3.95;;
18520;SDS011;9390;51.244;6.982;2024-01-16T11:24:58;9.23;;;3.72;;
18520;SDS011;9390;51.244;6.982;2024-01-16T11:27:39;7.47;;;3.35;;
18520;SDS011;9390;51.244;6.982;2024-01-16T11:30:11;12.88;;;3.78;;
18520;SDS011;9390;51.244;6.982;2024-01-16T11:32:45;10.02;;;3.35;;
18520;SDS011;9390;51.244;6.982;2024-01-16T11:35:16;15.38;;;3.72;;
18520;SDS011;9390;51.244;6.982;2024-01-16T11:38:03;9.13;;;3.53;;
18520;SDS011;9390;51.244;6.982;2024-01-16T11:46:07;13.32;;;3.72;;
18520;SDS011;9390;51.244;6.982;2024-01-16T11:48:40;17.52;;;4.35;;
18520;SDS011;9390;51.244;6.982;2024-01-16T11:51:22;12.73;;;3.78;;
18520;SDS011;9390;51.244;6.982;2024-01-16T11:53:55;12.35;;;3.58;;
18520;SDS011;9390;51.244;6.982;2024-01-16T11:56:41;13.95;;;4.40;;
18520;SDS011;9390;51.244;6.982;2024-01-16T12:02:46;10.85;;;4.10;;
18520;SDS011;9390;51.244;6.982;2024-01-16T12:05:22;11.10;;;4.95;;
18520;SDS011;9390;51.244;6.982;2024-01-16T12:07:54;11.80;;;5.13;;
18520;SDS011;9390;51.244;6.982;2024-01-16T12:10:25;13.48;;;4.93;;
18520;SDS011;9390;51.244;6.982;2024-01-16T12:12:57;11.90;;;3.78;;
18520;SDS011;9390;51.244;6.982;2024-01-16T12:15:29;14.40;;;4.45;;
18520;SDS011;9390;51.244;6.982;2024-01-16T12:18:01;16.30;;;6.13;;
18520;SDS011;9390;51.244;6.982;2024-01-16T12:20:35;10.10;;;3.87;;
18520;SDS011;9390;51.244;6.982;2024-01-16T12:23:07;12.45;;;4.05;;
18520;SDS011;9390;51.244;6.982;2024-01-16T12:25:39;6.53;;;3.65;;
18520;SDS011;9390;51.244;6.982;2024-01-16T12:28:11;13.10;;;4.82;;
18520;SDS011;9390;51.244;6.982;2024-01-16T12:30:48;22.17;;;6.82;;
18520;SDS011;9390;51.244;6.982;2024-01-16T12:33:21;21.17;;;8.15;;
18520;SDS011;9390;51.244;6.982;2024-01-16T12:36:01;12.25;;;4.63;;
18520;SDS011;9390;51.244;6.982;2024-01-16T12:38:33;12.13;;;4.05;;
18520;SDS011;9390;51.244;6.982;2024-01-16T12:41:05;13.20;;;4.50;;
18520;SDS011;9390;51.244;6.982;2024-01-16T12:46:11;14.93;;;5.38;;
18520;SDS011;9390;51.244;6.982;2024-01-16T12:48:42;9.98;;;4.00;;
18520;SDS011;9390;51.244;6.982;2024-01-16T12:51:21;14.27;;;4.10;;
18520;SDS011;9390;51.244;6.982;2024-01-16T12:53:53;11.07;;;4.32;;
18520;SDS011;9390;51.244;6.982;2024-01-16T12:56:24;16.83;;;4.90;;
18520;SDS011;9390;51.244;6.982;2024-01-16T12:58:55;15.10;;;4.45;;
18520;SDS011;9390;51.244;6.982;2024-01-16T13:01:27;14.35;;;4.75;;
18520;SDS011;9390;51.244;6.982;2024-01-16T13:04:03;11.02;;;4.18;;
18520;SDS011;9390;51.244;6.982;2024-01-16T13:06:36;12.60;;;4.20;;
18520;SDS011;9390;51.244;6.982;2024-01-16T13:09:16;13.77;;;5.10;;
18520;SDS011;9390;51.244;6.982;2024-01-16T13:11:49;15.40;;;5.28;;
18520;SDS011;9390;51.244;6.982;2024-01-16T13:16:53;17.13;;;4.93;;
18520;SDS011;9390;51.244;6.982;2024-01-16T13:19:25;12.20;;;4.10;;
18520;SDS011;9390;51.244;6.982;2024-01-16T13:21:58;11.27;;;4.63;;
18520;SDS011;9390;51.244;6.982;2024-01-16T13:24:29;12.68;;;5.18;;
18520;SDS011;9390;51.244;6.982;2024-01-16T13:27:01;24.25;;;11.50;;
18520;SDS011;9390;51.244;6.982;2024-01-16T13:29:32;16.63;;;5.72;;
18520;SDS011;9390;51.244;6.982;2024-01-16T13:32:05;15.05;;;6.45;;
18520;SDS011;9390;51.244;6.982;2024-01-16T13:34:38;16.80;;;5.90;;
18520;SDS011;9390;51.244;6.982;2024-01-16T13:37:13;17.05;;;7.72;;
18520;SDS011;9390;51.244;6.982;2024-01-16T13:39:49;12.48;;;5.13;;
18520;SDS011;9390;51.244;6.982;2024-01-16T13:42:21;12.93;;;5.78;;
18520;SDS011;9390;51.244;6.982;2024-01-16T13:44:52;15.38;;;5.82;;
18520;SDS011;9390;51.244;6.982;2024-01-16T13:47:24;13.18;;;5.28;;
18520;SDS011;9390;51.244;6.982;2024-01-16T13:49:55;15.52;;;4.65;;
18520;SDS011;9390;51.244;6.982;2024-01-16T13:52:28;11.13;;;4.30;;
18520;SDS011;9390;51.244;6.982;2024-01-16T13:55:00;23.83;;;6.00;;
18520;SDS011;9390;51.244;6.982;2024-01-16T13:57:34;18.52;;;5.78;;
18520;SDS011;9390;51.244;6.982;2024-01-16T14:00:07;16.67;;;6.20;;
18520;SDS011;9390;51.244;6.982;2024-01-16T14:02:44;19.35;;;5.88;;
18520;SDS011;9390;51.244;6.982;2024-01-16T14:05:16;14.15;;;5.93;;
18520;SDS011;9390;51.244;6.982;2024-01-16T14:07:50;12.63;;;4.68;;
18520;SDS011;9390;51.244;6.982;2024-01-16T14:10:22;15.18;;;4.95;;
18520;SDS011;9390;51.244;6.982;2024-01-16T14:12:55;17.20;;;5.20;;
18520;SDS011;9390;51.244;6.982;2024-01-16T14:15:26;15.27;;;5.28;;
18520;SDS011;9390;51.244;6.982;2024-01-16T14:17:58;11.93;;;4.22;;
18520;SDS011;9390;51.244;6.982;2024-01-16T14:20:30;10.80;;;4.97;;
18520;SDS011;9390;51.244;6.982;2024-01-16T14:23:03;15.15;;;4.95;;
18520;SDS011;9390;51.244;6.982;2024-01-16T14:25:34;17.73;;;5.43;;
18520;SDS011;9390;51.244;6.982;2024-01-16T14:28:06;14.25;;;4.90;;
18520;SDS011;9390;51.244;6.982;2024-01-16T14:30:38;19.13;;;5.60;;
18520;SDS011;9390;51.244;6.982;2024-01-16T14:33:10;16.48;;;5.55;;
18520;SDS011;9390;51.244;6.982;2024-01-16T14:35:42;14.52;;;4.80;;
18520;SDS011;9390;51.244;6.982;2024-01-16T14:38:16;12.23;;;5.07;;
18520;SDS011;9390;51.244;6.982;2024-01-16T14:40:47;19.58;;;7.25;;
18520;SDS011;9390;51.244;6.982;2024-01-16T14:43:21;22.60;;;9.02;;
18520;SDS011;9390;51.244;6.982;2024-01-16T14:45:53;13.55;;;5.75;;
18520;SDS011;9390;51.244;6.982;2024-01-16T14:48:24;15.00;;;6.40;;
18520;SDS011;9390;51.244;6.982;2024-01-16T14:50:56;31.60;;;9.52;;
18520;SDS011;9390;51.244;6.982;2024-01-16T14:53:28;17.42;;;6.32;;
18520;SDS011;9390;51.244;6.982;2024-01-16T14:56:00;38.67;;;13.10;;
18520;SDS011;9390;51.244;6.982;2024-01-16T14:58:31;17.05;;;5.97;;
18520;SDS011;9390;51.244;6.982;2024-01-16T15:01:03;12.20;;;5.45;;
18520;SDS011;9390;51.244;6.982;2024-01-16T15:03:37;12.95;;;5.78;;
18520;SDS011;9390;51.244;6.982;2024-01-16T15:06:08;9.77;;;4.25;;
18520;SDS011;9390;51.244;6.982;2024-01-16T15:08:43;12.23;;;4.57;;
18520;SDS011;9390;51.244;6.982;2024-01-16T15:11:15;12.43;;;4.78;;
18520;SDS011;9390;51.244;6.982;2024-01-16T15:13:47;13.45;;;5.28;;
18520;SDS011;9390;51.244;6.982;2024-01-16T15:16:19;10.07;;;4.35;;
18520;SDS011;9390;51.244;6.982;2024-01-16T15:18:50;11.90;;;4.88;;
18520;SDS011;9390;51.244;6.982;2024-01-16T15:21:22;11.35;;;4.60;;
18520;SDS011;9390;51.244;6.982;2024-01-16T15:23:54;13.63;;;5.18;;
18520;SDS011;9390;51.244;6.982;2024-01-16T15:26:26;13.05;;;4.75;;
18520;SDS011;9390;51.244;6.982;2024-01-16T15:28:57;12.82;;;4.65;;
18520;SDS011;9390;51.244;6.982;2024-01-16T15:31:29;14.93;;;4.32;;
18520;SDS011;9390;51.244;6.982;2024-01-16T15:34:00;16.60;;;5.47;;